createdAt,value
2022-09-29T00:01:38.546Z,58.07
2022-09-29T00:04:41.732Z,58.48
2022-09-29T00:07:44.980Z,57.81
2022-09-29T00:10:49.788Z,57.71
2022-09-29T00:13:53.189Z,57.27
2022-09-29T00:16:57.295Z,57.69
2022-09-29T00:20:00.475Z,59.23
2022-09-29T00:23:03.819Z,58.46
2022-09-29T00:26:12.643Z,58.17
2022-09-29T00:29:15.876Z,57.77
2022-09-29T00:32:19.344Z,58.73
2022-09-29T00:35:22.584Z,58.30
2022-09-29T00:38:25.925Z,58.17
2022-09-29T00:41:32.669Z,58.31
2022-09-29T00:44:58.861Z,57.89
2022-09-29T00:48:07.547Z,58.59
2022-09-29T00:51:11.195Z,58.73
2022-09-29T00:54:15.861Z,59.61
2022-09-29T00:57:22.975Z,60.21
2022-09-29T01:00:26.895Z,60.03
2022-09-29T01:03:34.842Z,59.31
2022-09-29T01:06:41.076Z,59.11
2022-09-29T01:09:45.377Z,59.31
2022-09-29T01:12:50.633Z,61.18
2022-09-29T01:15:53.832Z,59.56
2022-09-29T01:18:57.130Z,59.44
2022-09-29T01:22:07.715Z,59.83
2022-09-29T01:25:36.951Z,59.40
2022-09-29T01:29:19.238Z,59.87
2022-09-29T01:32:30.614Z,58.58
2022-09-29T01:35:41.506Z,61.26
2022-09-29T01:38:58.385Z,60.83
2022-09-29T01:42:06.369Z,60.85
2022-09-29T01:45:17.526Z,60.72
2022-09-29T01:48:27.079Z,62.15
2022-09-29T01:51:36.946Z,60.93
2022-09-29T01:54:46.995Z,62.75
2022-09-29T01:57:54.211Z,63.06
2022-09-29T02:01:00.554Z,64.73
2022-09-29T02:04:10.676Z,63.98
2022-09-29T02:07:19.488Z,63.92
2022-09-29T02:10:26.870Z,64.07
2022-09-29T02:13:33.024Z,63.51
2022-09-29T02:16:41.796Z,63.10
2022-09-29T02:19:48.340Z,63.23
2022-09-29T02:22:51.826Z,62.73
2022-09-29T02:25:58.694Z,62.12
2022-09-29T02:29:02.801Z,63.17
2022-09-29T02:32:10.120Z,63.75
2022-09-29T02:35:16.456Z,64.10
2022-09-29T02:38:31.986Z,63.20
2022-09-29T02:41:46.920Z,63.71
2022-09-29T02:45:08.866Z,64.86
2022-09-29T02:48:29.860Z,63.76
2022-09-29T02:51:40.322Z,63.55
2022-09-29T02:54:56.870Z,63.38
2022-09-29T02:58:05.470Z,63.04
2022-09-29T03:01:09.810Z,63.12
2022-09-29T03:04:13.016Z,63.71
2022-09-29T03:07:17.631Z,63.33
2022-09-29T03:10:20.908Z,62.96
2022-09-29T03:13:24.076Z,63.54
2022-09-29T03:16:27.433Z,64.07
2022-09-29T03:19:30.797Z,64.87
2022-09-29T03:22:35.759Z,63.94
2022-09-29T03:25:38.985Z,63.18
2022-09-29T03:28:43.003Z,63.12
2022-09-29T03:31:46.509Z,63.05
2022-09-29T03:34:49.878Z,63.27
2022-09-29T03:37:58.822Z,62.50
2022-09-29T03:41:02.260Z,62.59
2022-09-29T03:44:05.500Z,62.83
2022-09-29T03:47:08.721Z,62.88
2022-09-29T03:50:12.076Z,63.08
2022-09-29T03:53:17.370Z,63.90
2022-09-29T03:56:20.596Z,64.07
2022-09-29T03:59:23.907Z,63.50
2022-09-29T04:02:27.159Z,64.41
2022-09-29T04:05:30.850Z,65.72
2022-09-29T04:08:37.352Z,65.55
2022-09-29T04:11:40.620Z,63.91
2022-09-29T04:14:43.863Z,64.02
2022-09-29T04:17:47.081Z,65.32
2022-09-29T04:20:50.480Z,63.62
2022-09-29T04:23:56.015Z,63.85
2022-09-29T04:26:59.360Z,63.64
2022-09-29T04:30:02.622Z,64.25
2022-09-29T04:33:05.824Z,63.36
2022-09-29T04:36:09.343Z,63.32
2022-09-29T04:39:14.176Z,62.68
2022-09-29T04:42:17.447Z,62.67
2022-09-29T04:45:20.702Z,63.40
2022-09-29T04:48:25.121Z,63.85
2022-09-29T04:51:28.415Z,65.01
2022-09-29T04:54:37.676Z,64.42
2022-09-29T04:57:43.457Z,64.15
2022-09-29T05:00:46.787Z,63.72
2022-09-29T05:03:49.942Z,63.39
2022-09-29T05:06:53.221Z,62.75
2022-09-29T05:09:57.850Z,62.92
2022-09-29T05:13:01.101Z,62.54
2022-09-29T05:16:05.605Z,63.10
2022-09-29T05:19:09.670Z,62.59
2022-09-29T05:22:12.889Z,61.93
2022-09-29T05:25:17.708Z,61.65
2022-09-29T05:28:20.863Z,62.35
2022-09-29T05:31:24.167Z,61.58
2022-09-29T05:34:27.483Z,62.05
2022-09-29T05:37:30.737Z,62.44
2022-09-29T05:40:37.372Z,60.93
2022-09-29T05:43:41.323Z,60.25
2022-09-29T05:46:44.597Z,60.28
2022-09-29T05:49:47.835Z,58.21
2022-09-29T05:52:53.035Z,57.54
2022-09-29T05:55:57.644Z,56.83
2022-09-29T05:59:01.624Z,55.78
2022-09-29T06:02:04.900Z,55.51
2022-09-29T06:05:08.744Z,54.78
2022-09-29T06:08:12.530Z,54.96
2022-09-29T06:11:19.681Z,53.75
2022-09-29T06:14:23.097Z,52.80
2022-09-29T06:17:26.331Z,53.69
2022-09-29T06:20:29.798Z,52.28
2022-09-29T06:23:33.530Z,50.83
2022-09-29T06:26:38.196Z,50.83
2022-09-29T06:29:41.455Z,49.60
2022-09-29T06:32:44.696Z,49.14
2022-09-29T06:36:06.070Z,49.49
2022-09-29T06:39:11.247Z,49.21
2022-09-29T06:42:16.325Z,48.43
2022-09-29T06:45:22.203Z,48.86
2022-09-29T06:48:25.695Z,48.03
2022-09-29T06:51:42.029Z,48.49
2022-09-29T06:54:48.112Z,47.86
2022-09-29T06:57:52.790Z,48.00
2022-09-29T07:00:56.111Z,47.35
2022-09-29T07:04:00.829Z,46.58
2022-09-29T07:07:04.124Z,44.87
2022-09-29T07:10:08.060Z,44.40
2022-09-29T07:13:12.656Z,43.97
2022-09-29T07:16:16.032Z,43.39
2022-09-29T07:19:20.115Z,43.07
2022-09-29T07:22:23.666Z,42.38
2022-09-29T07:25:47.277Z,42.15
2022-09-29T07:28:51.573Z,42.51
2022-09-29T07:31:55.515Z,41.93
2022-09-29T07:34:58.891Z,41.81
2022-09-29T07:38:02.197Z,42.19
2022-09-29T07:41:07.241Z,41.39
2022-09-29T07:44:11.993Z,41.21
2022-09-29T07:47:15.573Z,40.85
2022-09-29T07:50:18.917Z,41.13
2022-09-29T07:53:22.252Z,40.85
2022-09-29T07:56:25.704Z,41.24
2022-09-29T07:59:30.411Z,40.87
2022-09-29T08:02:33.762Z,41.28
2022-09-29T08:05:37.474Z,39.90
2022-09-29T08:08:46.550Z,39.50
2022-09-29T08:12:05.932Z,39.81
2022-09-29T08:15:12.385Z,38.88
2022-09-29T08:18:15.717Z,38.77
2022-09-29T08:21:19.116Z,37.97
2022-09-29T08:24:22.499Z,38.40
2022-09-29T08:27:25.799Z,37.91
2022-09-29T08:30:30.526Z,39.14
2022-09-29T08:33:34.380Z,38.94
2022-09-29T08:36:37.901Z,37.66
2022-09-29T08:39:41.872Z,39.13
2022-09-29T08:43:01.031Z,39.15
2022-09-29T08:46:09.465Z,39.62
2022-09-29T08:49:27.926Z,39.40
2022-09-29T08:52:50.126Z,38.38
2022-09-29T08:55:58.382Z,38.32
2022-09-29T08:59:01.704Z,37.96
2022-09-29T09:02:24.075Z,38.12
2022-09-29T09:05:48.458Z,38.52
2022-09-29T09:09:12.314Z,38.50
2022-09-29T09:12:48.002Z,38.00
2022-09-29T09:16:05.169Z,38.75
2022-09-29T09:19:40.249Z,37.64
2022-09-29T09:22:55.472Z,37.82
2022-09-29T09:26:02.513Z,38.45
2022-09-29T09:29:12.580Z,38.12
2022-09-29T09:32:22.118Z,38.88
2022-09-29T09:35:52.252Z,39.24
2022-09-29T09:39:03.864Z,39.80
2022-09-29T09:42:16.111Z,39.64
2022-09-29T09:45:28.386Z,39.87
2022-09-29T09:48:36.619Z,39.81
2022-09-29T09:51:51.073Z,39.59
2022-09-29T09:54:57.266Z,40.02
2022-09-29T09:58:25.673Z,40.60
2022-09-29T10:01:29.071Z,41.33
2022-09-29T10:04:34.001Z,41.72
2022-09-29T10:07:41.627Z,41.40
2022-09-29T10:10:57.674Z,40.26
2022-09-29T10:14:05.468Z,39.65
2022-09-29T10:17:14.243Z,39.39
2022-09-29T10:20:33.184Z,39.36
2022-09-29T10:23:46.976Z,39.23
2022-09-29T10:27:02.859Z,39.38
2022-09-29T10:30:23.792Z,39.50
2022-09-29T10:33:27.962Z,38.46
2022-09-29T10:36:34.314Z,38.73
2022-09-29T10:39:45.743Z,38.24
2022-09-29T10:42:51.237Z,37.27
2022-09-29T10:45:58.698Z,36.57
2022-09-29T10:49:15.385Z,36.75
2022-09-29T10:52:25.762Z,37.20
2022-09-29T10:55:33.310Z,37.68
2022-09-29T10:58:57.592Z,37.26
2022-09-29T11:02:05.996Z,37.35
2022-09-29T11:05:36.085Z,37.57
2022-09-29T11:09:05.949Z,37.52
2022-09-29T11:12:28.801Z,36.68
2022-09-29T11:15:41.986Z,36.29
2022-09-29T11:18:56.118Z,35.42
2022-09-29T11:22:36.760Z,36.57
2022-09-29T11:26:12.382Z,35.78
2022-09-29T11:29:29.592Z,35.97
2022-09-29T11:32:45.358Z,36.19
2022-09-29T11:35:55.743Z,36.32
2022-09-29T11:39:10.888Z,36.42
2022-09-29T11:42:31.470Z,35.60
2022-09-29T11:45:43.393Z,36.17
2022-09-29T11:49:04.697Z,36.10
2022-09-29T11:52:32.395Z,36.22
2022-09-29T11:55:50.914Z,34.80
2022-09-29T11:59:13.867Z,35.37
2022-09-29T12:02:41.544Z,34.96
2022-09-29T12:06:02.722Z,34.95
2022-09-29T12:09:24.948Z,35.46
2022-09-29T12:12:37.254Z,35.25
2022-09-29T12:15:52.690Z,35.30
2022-09-29T12:19:01.334Z,35.39
2022-09-29T12:22:09.101Z,34.98
2022-09-29T12:25:17.155Z,34.44
2022-09-29T12:28:27.409Z,34.54
2022-09-29T12:31:35.683Z,34.35
2022-09-29T12:34:46.161Z,34.29
2022-09-29T12:37:55.483Z,34.64
2022-09-29T12:41:11.012Z,34.76
2022-09-29T12:44:22.191Z,35.11
2022-09-29T12:47:44.240Z,34.08
2022-09-29T12:50:56.374Z,34.02
2022-09-29T12:54:12.539Z,34.21
2022-09-29T12:57:20.098Z,34.78
2022-09-29T13:00:24.506Z,34.82
2022-09-29T13:04:07.331Z,34.65
2022-09-29T13:07:51.300Z,34.09
2022-09-29T13:11:05.788Z,34.44
2022-09-29T13:14:22.613Z,34.27
2022-09-29T13:17:39.666Z,33.61
2022-09-29T13:21:02.985Z,34.10
2022-09-29T13:24:43.569Z,35.09
2022-09-29T13:27:49.913Z,35.20
2022-09-29T13:30:56.186Z,34.99
2022-09-29T13:34:02.476Z,35.61
2022-09-29T13:37:14.723Z,35.02
2022-09-29T13:40:23.265Z,34.76
2022-09-29T13:43:39.515Z,34.38
2022-09-29T13:46:43.037Z,34.74
2022-09-29T13:49:46.261Z,34.98
2022-09-29T13:52:49.508Z,34.76
2022-09-29T13:55:55.828Z,35.45
2022-09-29T13:59:01.378Z,35.72
2022-09-29T14:02:20.758Z,35.53
2022-09-29T14:05:46.743Z,36.38
2022-09-29T14:08:53.791Z,36.62
2022-09-29T14:12:02.654Z,37.15
2022-09-29T14:15:09.720Z,37.14
2022-09-29T14:18:19.818Z,36.71
2022-09-29T14:21:53.383Z,36.64
2022-09-29T14:24:57.135Z,36.97
2022-09-29T14:28:06.735Z,36.87
2022-09-29T14:31:23.172Z,37.51
2022-09-29T14:34:30.105Z,37.81
2022-09-29T14:37:33.379Z,37.19
2022-09-29T14:40:36.890Z,37.38
2022-09-29T14:43:44.217Z,37.29
2022-09-29T14:47:25.360Z,36.07
2022-09-29T14:50:59.158Z,36.64
2022-09-29T14:54:08.410Z,35.82
2022-09-29T14:57:34.328Z,36.73
2022-09-29T15:00:52.435Z,36.27
2022-09-29T15:03:58.165Z,36.86
2022-09-29T15:07:05.720Z,37.27
2022-09-29T15:10:22.746Z,37.09
2022-09-29T15:13:31.479Z,36.84
2022-09-29T15:16:52.911Z,37.11
2022-09-29T15:20:02.352Z,37.00
2022-09-29T15:23:28.452Z,37.42
2022-09-29T15:26:34.798Z,37.69
2022-09-29T15:29:38.020Z,37.47
2022-09-29T15:32:42.729Z,38.47
2022-09-29T15:35:51.263Z,38.18
2022-09-29T15:38:55.330Z,38.67
2022-09-29T15:42:02.213Z,39.20
2022-09-29T15:45:18.041Z,38.44
2022-09-29T15:48:22.687Z,39.14
2022-09-29T15:51:25.978Z,39.97
2022-09-29T15:54:34.925Z,40.08
2022-09-29T15:57:50.402Z,40.51
2022-09-29T16:01:00.048Z,41.19
2022-09-29T16:04:04.977Z,41.18
2022-09-29T16:07:19.304Z,41.43
2022-09-29T16:10:25.247Z,41.71
2022-09-29T16:13:33.527Z,42.22
2022-09-29T16:16:41.378Z,42.10
2022-09-29T16:19:48.916Z,41.91
2022-09-29T16:22:52.175Z,42.18
2022-09-29T16:26:14.332Z,42.61
2022-09-29T16:29:32.821Z,42.25
2022-09-29T16:32:42.836Z,43.01
2022-09-29T16:35:57.550Z,43.45
2022-09-29T16:39:01.783Z,42.77
2022-09-29T16:42:07.244Z,43.56
2022-09-29T16:45:17.846Z,43.45
2022-09-29T16:48:21.677Z,44.24
2022-09-29T16:51:38.520Z,43.99
2022-09-29T16:54:44.872Z,43.88
2022-09-29T16:57:57.309Z,44.28
2022-09-29T17:01:00.646Z,43.98
2022-09-29T17:04:03.935Z,44.70
2022-09-29T17:07:11.106Z,44.71
2022-09-29T17:10:18.788Z,45.23
2022-09-29T17:13:23.352Z,45.21
2022-09-29T17:16:27.460Z,45.31
2022-09-29T17:19:30.687Z,45.50
2022-09-29T17:22:37.878Z,46.12
2022-09-29T17:25:44.117Z,45.98
2022-09-29T17:28:46.303Z,45.96
2022-09-29T17:31:49.627Z,45.67
2022-09-29T17:34:52.826Z,45.94
2022-09-29T17:37:58.054Z,46.32
2022-09-29T17:41:03.729Z,46.74
2022-09-29T17:44:10.032Z,47.03
2022-09-29T17:47:27.168Z,47.40
2022-09-29T17:50:36.711Z,47.06
2022-09-29T17:53:42.387Z,47.59
2022-09-29T17:56:45.660Z,47.75
2022-09-29T17:59:48.878Z,48.09
2022-09-29T18:02:59.935Z,48.88
2022-09-29T18:06:03.238Z,48.97
2022-09-29T18:09:16.301Z,49.55
2022-09-29T18:12:22.507Z,49.51
2022-09-29T18:15:26.712Z,49.72
2022-09-29T18:18:29.949Z,50.33
2022-09-29T18:21:36.500Z,48.85
2022-09-29T18:24:41.493Z,49.76
2022-09-29T18:27:44.790Z,49.16
2022-09-29T18:30:50.549Z,49.77
2022-09-29T18:33:54.495Z,49.12
2022-09-29T18:36:57.724Z,48.88
2022-09-29T18:40:02.792Z,49.33
2022-09-29T18:43:07.356Z,47.92
2022-09-29T18:46:13.589Z,47.91
2022-09-29T18:49:17.150Z,48.65
2022-09-29T18:52:20.720Z,48.83
2022-09-29T18:55:26.998Z,50.72
2022-09-29T18:58:30.588Z,50.54
2022-09-29T19:01:33.803Z,51.23
2022-09-29T19:04:40.468Z,50.95
2022-09-29T19:07:43.772Z,50.65
2022-09-29T19:10:52.318Z,50.99
2022-09-29T19:13:56.314Z,51.89
2022-09-29T19:16:59.550Z,53.10
2022-09-29T19:20:03.122Z,53.46
2022-09-29T19:23:06.409Z,53.50
2022-09-29T19:26:13.987Z,53.66
2022-09-29T19:29:17.392Z,53.09
2022-09-29T19:32:21.242Z,53.67
2022-09-29T19:35:25.195Z,53.29
2022-09-29T19:38:28.455Z,52.79
2022-09-29T19:41:33.050Z,53.56
2022-09-29T19:44:37.852Z,53.13
2022-09-29T19:47:41.130Z,53.34
2022-09-29T19:51:02.478Z,53.86
2022-09-29T19:54:17.244Z,53.88
2022-09-29T19:57:22.575Z,53.95
2022-09-29T20:00:25.778Z,54.04
2022-09-29T20:03:28.960Z,54.28
2022-09-29T20:06:35.863Z,53.73
2022-09-29T20:09:39.069Z,54.80
2022-09-29T20:12:44.369Z,54.41
2022-09-29T20:15:47.793Z,54.87
2022-09-29T20:18:51.046Z,54.65
2022-09-29T20:21:57.379Z,53.66
2022-09-29T20:25:00.702Z,54.64
2022-09-29T20:28:08.787Z,54.33
2022-09-29T20:31:13.927Z,54.38
2022-09-29T20:34:18.787Z,54.24
2022-09-29T20:37:22.135Z,54.09
2022-09-29T20:40:25.313Z,53.57
2022-09-29T20:43:29.922Z,53.16
2022-09-29T20:46:33.242Z,52.97
2022-09-29T20:49:36.679Z,52.54
2022-09-29T20:52:39.908Z,52.57
2022-09-29T20:55:43.038Z,52.26
2022-09-29T20:58:49.767Z,52.53
2022-09-29T21:01:54.121Z,52.29
2022-09-29T21:04:57.514Z,51.74
2022-09-29T21:08:00.776Z,52.63
2022-09-29T21:11:05.884Z,52.30
2022-09-29T21:14:13.232Z,52.46
2022-09-29T21:17:16.395Z,52.20
2022-09-29T21:20:19.679Z,52.55
2022-09-29T21:23:23.204Z,52.92
2022-09-29T21:26:26.561Z,52.53
2022-09-29T21:29:31.208Z,52.80
2022-09-29T21:32:34.396Z,52.42
2022-09-29T21:35:37.609Z,52.60
2022-09-29T21:38:42.454Z,52.56
2022-09-29T21:41:46.288Z,52.51
2022-09-29T21:44:54.787Z,53.23
2022-09-29T21:48:09.525Z,53.81
2022-09-29T21:51:14.698Z,54.10
2022-09-29T21:54:19.743Z,53.40
2022-09-29T21:57:22.987Z,53.44
2022-09-29T22:00:27.634Z,54.79
2022-09-29T22:03:33.064Z,54.55
2022-09-29T22:06:37.811Z,54.26
2022-09-29T22:09:41.087Z,55.24
2022-09-29T22:12:44.415Z,54.53
2022-09-29T22:15:49.042Z,54.49
2022-09-29T22:19:12.053Z,55.32
2022-09-29T22:22:16.713Z,56.40
2022-09-29T22:25:19.907Z,56.24
2022-09-29T22:28:23.897Z,56.97
2022-09-29T22:34:32.097Z,57.67
2022-09-29T22:37:35.291Z,57.07
2022-09-29T22:40:40.075Z,56.04
2022-09-29T22:43:43.620Z,56.89
2022-09-29T22:46:48.285Z,56.49
2022-09-29T22:49:51.664Z,56.72
2022-09-29T22:52:56.478Z,56.48
2022-09-29T22:55:59.891Z,56.29
2022-09-29T22:59:05.458Z,56.49
2022-09-29T23:02:10.123Z,56.51
2022-09-29T23:05:14.040Z,56.22
2022-09-29T23:08:18.800Z,56.39
2022-09-29T23:11:22.181Z,56.27
2022-09-29T23:14:25.451Z,56.81
2022-09-29T23:17:32.337Z,56.75
2022-09-29T23:20:35.559Z,56.44
2022-09-29T23:23:38.851Z,56.90
2022-09-29T23:26:42.148Z,58.33
2022-09-29T23:29:45.332Z,58.78
2022-09-29T23:32:50.393Z,59.54
2022-09-29T23:35:53.554Z,60.75
2022-09-29T23:39:14.056Z,60.42
2022-09-29T23:42:17.861Z,60.16
2022-09-29T23:45:21.096Z,59.56
2022-09-29T23:48:26.315Z,60.09
2022-09-29T23:51:32.154Z,59.25
2022-09-29T23:54:35.455Z,59.59
2022-09-29T23:57:38.619Z,59.92
